createdAt,value
2023-04-08T00:00:36.448Z,557.00
2023-04-08T00:01:36.472Z,559.00
2023-04-08T00:02:36.658Z,560.00
2023-04-08T00:03:36.542Z,567.00
2023-04-08T00:04:36.535Z,558.00
2023-04-08T00:05:36.507Z,559.00
2023-04-08T00:06:36.542Z,567.00
2023-04-08T00:07:36.470Z,560.00
2023-04-08T00:08:36.516Z,560.00
2023-04-08T00:09:36.486Z,560.00
2023-04-08T00:10:36.454Z,559.00
2023-04-08T00:11:36.458Z,559.00
2023-04-08T00:12:36.543Z,563.00
2023-04-08T00:13:36.457Z,568.00
2023-04-08T00:14:37.291Z,553.00
2023-04-08T00:15:36.508Z,559.00
2023-04-08T00:16:36.485Z,561.00
2023-04-08T00:17:36.537Z,556.00
2023-04-08T00:18:36.458Z,559.00
2023-04-08T00:19:36.466Z,554.00
2023-04-08T00:20:36.437Z,556.00
2023-04-08T00:21:36.719Z,556.00
2023-04-08T00:22:36.472Z,565.00
2023-04-08T00:23:36.488Z,560.00
2023-04-08T00:24:36.456Z,565.00
2023-04-08T00:25:36.434Z,560.00
2023-04-08T00:26:36.458Z,558.00
2023-04-08T00:27:36.470Z,553.00
2023-04-08T00:28:36.434Z,559.00
2023-04-08T00:29:36.455Z,561.00
2023-04-08T00:30:36.459Z,560.00
2023-04-08T00:31:36.443Z,557.00
2023-04-08T00:32:36.526Z,553.00
2023-04-08T00:33:36.436Z,560.00
2023-04-08T00:34:36.421Z,567.00
2023-04-08T00:35:36.443Z,565.00
2023-04-08T00:36:36.426Z,557.00
2023-04-08T00:37:36.424Z,564.00
2023-04-08T00:38:36.466Z,560.00
2023-04-08T00:39:36.464Z,560.00
2023-04-08T00:40:36.468Z,561.00
2023-04-08T00:41:36.476Z,563.00
2023-04-08T00:42:36.461Z,562.00
2023-04-08T00:43:36.505Z,560.00
2023-04-08T00:44:36.471Z,557.00
2023-04-08T00:45:36.509Z,560.00
2023-04-08T00:46:36.712Z,559.00
2023-04-08T00:47:36.503Z,557.00
2023-04-08T00:48:36.448Z,558.00
2023-04-08T00:49:36.456Z,568.00
2023-04-08T00:50:36.485Z,563.00
2023-04-08T00:51:36.505Z,565.00
2023-04-08T00:52:36.525Z,563.00
2023-04-08T00:53:36.456Z,562.00
2023-04-08T00:54:36.499Z,561.00
2023-04-08T00:55:36.492Z,560.00
2023-04-08T00:56:36.492Z,557.00
2023-04-08T00:57:36.481Z,561.00
2023-04-08T00:58:36.476Z,557.00
2023-04-08T00:59:36.490Z,561.00
2023-04-08T01:00:36.461Z,556.00
2023-04-08T01:01:36.784Z,556.00
2023-04-08T01:02:36.648Z,560.00
2023-04-08T01:03:36.522Z,555.00
2023-04-08T01:04:36.484Z,550.00
2023-04-08T01:05:36.473Z,556.00
2023-04-08T01:06:36.472Z,550.00
2023-04-08T01:07:36.514Z,546.00
2023-04-08T01:08:36.488Z,554.00
2023-04-08T01:09:36.474Z,552.00
2023-04-08T01:10:36.459Z,551.00
2023-04-08T01:11:36.646Z,554.00
2023-04-08T01:12:36.473Z,552.00
2023-04-08T01:13:36.461Z,554.00
2023-04-08T01:14:36.493Z,550.00
2023-04-08T01:15:37.232Z,553.00
2023-04-08T01:16:36.484Z,549.00
2023-04-08T01:17:36.859Z,552.00
2023-04-08T01:18:36.444Z,554.00
2023-04-08T01:19:36.438Z,555.00
2023-04-08T01:20:36.498Z,554.00
2023-04-08T01:21:36.447Z,547.00
2023-04-08T01:22:36.430Z,552.00
2023-04-08T01:23:37.256Z,549.00
2023-04-08T01:24:36.452Z,550.00
2023-04-08T01:25:36.468Z,554.00
2023-04-08T01:26:36.463Z,549.00
2023-04-08T01:27:36.504Z,550.00
2023-04-08T01:28:36.469Z,552.00
2023-04-08T01:29:36.487Z,553.00
2023-04-08T01:30:36.458Z,550.00
2023-04-08T01:31:36.595Z,549.00
2023-04-08T01:32:36.502Z,550.00
2023-04-08T01:33:36.513Z,549.00
2023-04-08T01:34:36.484Z,554.00
2023-04-08T01:35:36.478Z,552.00
2023-04-08T01:36:36.460Z,550.00
2023-04-08T01:37:36.505Z,549.00
2023-04-08T01:38:36.472Z,554.00
2023-04-08T01:39:36.461Z,555.00
2023-04-08T01:40:36.468Z,542.00
2023-04-08T01:41:36.476Z,542.00
2023-04-08T01:42:36.737Z,549.00
2023-04-08T01:43:36.456Z,548.00
2023-04-08T01:44:36.522Z,552.00
2023-04-08T01:45:36.550Z,543.00
2023-04-08T01:46:36.480Z,550.00
2023-04-08T01:47:36.492Z,548.00
2023-04-08T01:48:36.452Z,551.00
2023-04-08T01:49:36.491Z,551.00
2023-04-08T01:50:36.468Z,557.00
2023-04-08T01:51:37.725Z,556.00
2023-04-08T01:52:36.448Z,549.00
2023-04-08T01:53:36.455Z,546.00
2023-04-08T01:54:36.471Z,552.00
2023-04-08T01:55:36.443Z,543.00
2023-04-08T01:56:36.490Z,543.00
2023-04-08T01:57:36.786Z,539.00
2023-04-08T01:58:36.471Z,548.00
2023-04-08T01:59:36.467Z,549.00
2023-04-08T02:00:36.464Z,548.00
2023-04-08T02:01:36.496Z,549.00
2023-04-08T02:02:36.729Z,551.00
2023-04-08T02:03:36.582Z,545.00
2023-04-08T02:04:36.534Z,546.00
2023-04-08T02:05:36.466Z,543.00
2023-04-08T02:06:36.426Z,544.00
2023-04-08T02:07:36.434Z,537.00
2023-04-08T02:08:36.525Z,548.00
2023-04-08T02:09:36.419Z,547.00
2023-04-08T02:10:36.427Z,546.00
2023-04-08T02:11:36.433Z,547.00
2023-04-08T02:12:36.409Z,548.00
2023-04-08T02:13:36.458Z,539.00
2023-04-08T02:14:36.445Z,543.00
2023-04-08T02:15:36.458Z,543.00
2023-04-08T02:16:36.536Z,542.00
2023-04-08T02:17:36.450Z,546.00
2023-04-08T02:18:36.474Z,542.00
2023-04-08T02:19:36.440Z,544.00
2023-04-08T02:20:36.460Z,547.00
2023-04-08T02:21:36.418Z,541.00
2023-04-08T02:22:36.460Z,545.00
2023-04-08T02:23:36.442Z,545.00
2023-04-08T02:24:36.450Z,546.00
2023-04-08T02:25:36.412Z,545.00
2023-04-08T02:26:36.409Z,543.00
2023-04-08T02:27:36.446Z,546.00
2023-04-08T02:28:36.482Z,549.00
2023-04-08T02:29:36.435Z,551.00
2023-04-08T02:30:37.276Z,543.00
2023-04-08T02:31:36.549Z,544.00
2023-04-08T02:32:36.480Z,544.00
2023-04-08T02:33:37.434Z,541.00
2023-04-08T02:34:36.421Z,544.00
2023-04-08T02:35:36.477Z,549.00
2023-04-08T02:36:36.462Z,547.00
2023-04-08T02:37:36.443Z,542.00
2023-04-08T02:38:36.447Z,542.00
2023-04-08T02:39:36.429Z,543.00
2023-04-08T02:40:36.436Z,546.00
2023-04-08T02:41:36.460Z,546.00
2023-04-08T02:42:36.432Z,547.00
2023-04-08T02:43:36.438Z,545.00
2023-04-08T02:44:36.492Z,544.00
2023-04-08T02:45:36.518Z,540.00
2023-04-08T02:46:36.459Z,550.00
2023-04-08T02:47:36.488Z,550.00
2023-04-08T02:48:36.438Z,538.00
2023-04-08T02:49:36.504Z,547.00
2023-04-08T02:50:36.481Z,543.00
2023-04-08T02:51:36.486Z,542.00
2023-04-08T02:52:36.524Z,542.00
2023-04-08T02:53:36.481Z,540.00
2023-04-08T02:54:36.448Z,536.00
2023-04-08T02:55:36.482Z,543.00
2023-04-08T02:56:36.485Z,546.00
2023-04-08T02:57:36.491Z,541.00
2023-04-08T02:58:36.455Z,547.00
2023-04-08T02:59:36.484Z,540.00
2023-04-08T03:00:36.480Z,539.00
2023-04-08T03:01:36.588Z,533.00
2023-04-08T03:02:36.679Z,543.00
2023-04-08T03:03:36.607Z,544.00
2023-04-08T03:04:36.463Z,541.00
2023-04-08T03:05:36.453Z,547.00
2023-04-08T03:06:36.470Z,545.00
2023-04-08T03:07:36.438Z,538.00
2023-04-08T03:08:36.438Z,544.00
2023-04-08T03:09:36.437Z,538.00
2023-04-08T03:10:36.653Z,539.00
2023-04-08T03:11:36.447Z,531.00
2023-04-08T03:12:36.781Z,544.00
2023-04-08T03:13:36.506Z,539.00
2023-04-08T03:14:36.453Z,543.00
2023-04-08T03:15:36.474Z,541.00
2023-04-08T03:16:36.514Z,539.00
2023-04-08T03:17:36.489Z,535.00
2023-04-08T03:18:36.485Z,537.00
2023-04-08T03:19:36.462Z,542.00
2023-04-08T03:20:36.484Z,539.00
2023-04-08T03:21:36.483Z,537.00
2023-04-08T03:22:36.505Z,537.00
2023-04-08T03:23:36.470Z,535.00
2023-04-08T03:24:36.494Z,537.00
2023-04-08T03:25:36.470Z,541.00
2023-04-08T03:26:37.283Z,536.00
2023-04-08T03:27:36.512Z,535.00
2023-04-08T03:28:36.510Z,536.00
2023-04-08T03:29:36.509Z,536.00
2023-04-08T03:30:36.511Z,534.00
2023-04-08T03:31:36.502Z,542.00
2023-04-08T03:32:36.680Z,533.00
2023-04-08T03:33:36.485Z,532.00
2023-04-08T03:34:36.516Z,537.00
2023-04-08T03:35:36.582Z,533.00
2023-04-08T03:36:36.558Z,531.00
2023-04-08T03:37:36.587Z,533.00
2023-04-08T03:38:36.556Z,541.00
2023-04-08T03:39:39.318Z,534.00
2023-04-08T03:40:36.573Z,537.00
2023-04-08T03:41:37.275Z,530.00
2023-04-08T03:42:36.564Z,537.00
2023-04-08T03:43:37.943Z,539.00
2023-04-08T03:44:36.493Z,541.00
2023-04-08T03:45:36.560Z,537.00
2023-04-08T03:46:36.471Z,532.00
2023-04-08T03:47:36.536Z,532.00
2023-04-08T03:48:36.468Z,535.00
2023-04-08T03:49:36.518Z,532.00
2023-04-08T03:50:36.441Z,531.00
2023-04-08T03:51:36.476Z,531.00
2023-04-08T03:52:36.481Z,528.00
2023-04-08T03:53:36.461Z,530.00
2023-04-08T03:54:36.416Z,526.00
2023-04-08T03:55:36.451Z,524.00
2023-04-08T03:56:36.413Z,528.00
2023-04-08T03:57:36.421Z,530.00
2023-04-08T03:58:36.405Z,526.00
2023-04-08T03:59:36.421Z,524.00
2023-04-08T04:00:36.378Z,523.00
2023-04-08T04:01:36.420Z,528.00
2023-04-08T04:02:36.466Z,531.00
2023-04-08T04:03:36.511Z,526.00
2023-04-08T04:04:36.438Z,524.00
2023-04-08T04:05:36.357Z,523.00
2023-04-08T04:06:36.325Z,525.00
2023-04-08T04:07:36.355Z,523.00
2023-04-08T04:08:36.361Z,519.00
2023-04-08T04:09:36.388Z,525.00
2023-04-08T04:10:36.297Z,518.00
2023-04-08T04:11:36.324Z,524.00
2023-04-08T04:12:36.368Z,523.00
2023-04-08T04:13:36.300Z,520.00
2023-04-08T04:14:36.797Z,521.00
2023-04-08T04:15:36.809Z,521.00
2023-04-08T04:16:36.312Z,519.00
2023-04-08T04:17:36.359Z,524.00
2023-04-08T04:18:36.290Z,520.00
2023-04-08T04:19:36.258Z,517.00
2023-04-08T04:20:36.250Z,527.00
2023-04-08T04:21:36.273Z,521.00
2023-04-08T04:22:36.792Z,529.00
2023-04-08T04:23:36.260Z,523.00
2023-04-08T04:24:36.208Z,526.00
2023-04-08T04:25:36.203Z,521.00
2023-04-08T04:26:36.312Z,524.00
2023-04-08T04:27:36.194Z,522.00
2023-04-08T04:28:36.251Z,526.00
2023-04-08T04:29:36.180Z,523.00
2023-04-08T04:30:36.188Z,525.00
2023-04-08T04:31:36.225Z,525.00
2023-04-08T04:32:36.270Z,517.00
2023-04-08T04:33:36.172Z,526.00
2023-04-08T04:34:36.142Z,526.00
2023-04-08T04:35:36.204Z,527.00
2023-04-08T04:36:36.130Z,527.00
2023-04-08T04:37:36.131Z,524.00
2023-04-08T04:38:36.138Z,521.00
2023-04-08T04:39:36.102Z,523.00
2023-04-08T04:40:36.119Z,531.00
2023-04-08T04:41:36.148Z,524.00
2023-04-08T04:42:36.182Z,523.00
2023-04-08T04:43:36.182Z,523.00
2023-04-08T04:44:36.260Z,523.00
2023-04-08T04:45:36.222Z,524.00
2023-04-08T04:46:36.267Z,528.00
2023-04-08T04:47:36.265Z,525.00
2023-04-08T04:48:36.242Z,524.00
2023-04-08T04:49:36.251Z,523.00
2023-04-08T04:50:36.263Z,520.00
2023-04-08T04:51:36.343Z,524.00
2023-04-08T04:52:36.255Z,525.00
2023-04-08T04:53:36.322Z,524.00
2023-04-08T04:54:37.317Z,526.00
2023-04-08T04:55:38.728Z,521.00
2023-04-08T04:56:36.313Z,529.00
2023-04-08T04:57:36.982Z,522.00
2023-04-08T04:58:36.355Z,525.00
2023-04-08T04:59:36.336Z,523.00
2023-04-08T05:00:36.304Z,532.00
2023-04-08T05:01:36.383Z,522.00
2023-04-08T05:02:36.536Z,527.00
2023-04-08T05:03:36.303Z,521.00
2023-04-08T05:04:36.334Z,529.00
2023-04-08T05:05:36.249Z,521.00
2023-04-08T05:06:36.249Z,523.00
2023-04-08T05:07:36.240Z,524.00
2023-04-08T05:08:36.251Z,521.00
2023-04-08T05:09:36.220Z,522.00
2023-04-08T05:10:36.227Z,522.00
2023-04-08T05:11:36.272Z,519.00
2023-04-08T05:12:36.212Z,524.00
2023-04-08T05:13:36.333Z,526.00
2023-04-08T05:14:36.206Z,524.00
2023-04-08T05:15:36.195Z,522.00
2023-04-08T05:16:36.307Z,523.00
2023-04-08T05:17:36.267Z,521.00
2023-04-08T05:18:36.177Z,524.00
2023-04-08T05:19:36.197Z,527.00
2023-04-08T05:20:36.169Z,528.00
2023-04-08T05:21:36.140Z,521.00
2023-04-08T05:22:36.136Z,526.00
2023-04-08T05:23:36.143Z,525.00
2023-04-08T05:24:36.148Z,530.00
2023-04-08T05:25:36.836Z,523.00
2023-04-08T05:26:36.129Z,529.00
2023-04-08T05:27:36.096Z,526.00
2023-04-08T05:28:36.201Z,526.00
2023-04-08T05:29:36.848Z,525.00
2023-04-08T05:30:36.115Z,529.00
2023-04-08T05:31:36.081Z,523.00
2023-04-08T05:32:36.129Z,523.00
2023-04-08T05:33:37.023Z,522.00
2023-04-08T05:34:36.849Z,525.00
2023-04-08T05:35:36.073Z,519.00
2023-04-08T05:36:36.085Z,528.00
2023-04-08T05:37:36.177Z,526.00
2023-04-08T05:38:36.054Z,520.00
2023-04-08T05:39:36.065Z,526.00
2023-04-08T05:40:36.049Z,517.00
2023-04-08T05:41:35.997Z,526.00
2023-04-08T05:42:36.039Z,528.00
2023-04-08T05:43:36.352Z,529.00
2023-04-08T05:44:35.998Z,525.00
2023-04-08T05:45:35.974Z,519.00
2023-04-08T05:46:36.019Z,524.00
2023-04-08T05:47:36.033Z,524.00
2023-04-08T05:48:36.029Z,526.00
2023-04-08T05:49:35.950Z,531.00
2023-04-08T05:50:35.963Z,530.00
2023-04-08T05:51:35.938Z,526.00
2023-04-08T05:52:38.866Z,526.00
2023-04-08T05:53:35.924Z,528.00
2023-04-08T05:54:35.888Z,527.00
2023-04-08T05:55:35.906Z,528.00
2023-04-08T05:56:35.886Z,524.00
2023-04-08T05:57:35.923Z,518.00
2023-04-08T05:58:35.884Z,528.00
2023-04-08T05:59:35.887Z,524.00
2023-04-08T06:00:35.859Z,519.00
2023-04-08T06:01:35.925Z,525.00
2023-04-08T06:02:35.919Z,526.00
2023-04-08T06:03:35.955Z,528.00
2023-04-08T06:04:35.902Z,520.00
2023-04-08T06:05:35.832Z,526.00
2023-04-08T06:06:35.903Z,520.00
2023-04-08T06:07:35.794Z,523.00
2023-04-08T06:08:35.823Z,522.00
2023-04-08T06:09:35.784Z,527.00
2023-04-08T06:10:35.804Z,525.00
2023-04-08T06:11:35.789Z,526.00
2023-04-08T06:12:35.773Z,524.00
2023-04-08T06:13:35.735Z,522.00
2023-04-08T06:14:35.867Z,524.00
2023-04-08T06:15:35.738Z,527.00
2023-04-08T06:16:35.754Z,525.00
2023-04-08T06:17:35.746Z,523.00
2023-04-08T06:18:35.713Z,526.00
2023-04-08T06:19:35.716Z,524.00
2023-04-08T06:20:35.795Z,526.00
2023-04-08T06:21:35.697Z,524.00
2023-04-08T06:22:35.694Z,527.00
2023-04-08T06:23:35.682Z,531.00
2023-04-08T06:24:35.664Z,531.00
2023-04-08T06:25:35.680Z,532.00
2023-04-08T06:26:35.672Z,528.00
2023-04-08T06:27:35.668Z,526.00
2023-04-08T06:28:35.932Z,529.00
2023-04-08T06:29:35.622Z,522.00
2023-04-08T06:30:35.619Z,525.00
2023-04-08T06:31:35.728Z,523.00
2023-04-08T06:32:35.628Z,523.00
2023-04-08T06:33:35.699Z,526.00
2023-04-08T06:34:35.624Z,529.00
2023-04-08T06:35:35.759Z,524.00
2023-04-08T06:36:35.584Z,530.00
2023-04-08T06:37:35.586Z,525.00
2023-04-08T06:38:35.614Z,524.00
2023-04-08T06:39:35.591Z,528.00
2023-04-08T06:40:35.537Z,534.00
2023-04-08T06:41:35.561Z,530.00
2023-04-08T06:42:35.548Z,528.00
2023-04-08T06:43:35.603Z,529.00
2023-04-08T06:44:35.575Z,527.00
2023-04-08T06:45:35.647Z,527.00
2023-04-08T06:46:36.378Z,525.00
2023-04-08T06:47:35.545Z,524.00
2023-04-08T06:48:35.540Z,528.00
2023-04-08T06:49:35.494Z,527.00
2023-04-08T06:50:35.536Z,526.00
2023-04-08T06:51:35.501Z,529.00
2023-04-08T06:52:35.473Z,527.00
2023-04-08T06:53:35.479Z,528.00
2023-04-08T06:54:35.678Z,528.00
2023-04-08T06:55:35.466Z,530.00
2023-04-08T06:56:35.439Z,531.00
2023-04-08T06:57:35.444Z,528.00
2023-04-08T06:58:35.422Z,528.00
2023-04-08T06:59:35.536Z,531.00
2023-04-08T07:00:35.458Z,532.00
2023-04-08T07:01:35.522Z,526.00
2023-04-08T07:02:35.597Z,527.00
2023-04-08T07:03:35.460Z,527.00
2023-04-08T07:04:35.945Z,527.00
2023-04-08T07:05:35.375Z,529.00
2023-04-08T07:06:35.376Z,533.00
2023-04-08T07:07:35.385Z,530.00
2023-04-08T07:08:36.893Z,532.00
2023-04-08T07:09:35.358Z,532.00
2023-04-08T07:10:35.340Z,530.00
2023-04-08T07:11:35.366Z,535.00
2023-04-08T07:12:35.300Z,532.00
2023-04-08T07:13:35.292Z,529.00
2023-04-08T07:14:35.352Z,528.00
2023-04-08T07:15:37.873Z,529.00
2023-04-08T07:16:35.571Z,534.00
2023-04-08T07:17:36.406Z,529.00
2023-04-08T07:18:35.531Z,527.00
2023-04-08T07:19:35.504Z,527.00
2023-04-08T07:20:35.472Z,532.00
2023-04-08T07:21:35.654Z,527.00
2023-04-08T07:22:35.513Z,529.00
2023-04-08T07:23:35.479Z,518.00
2023-04-08T07:24:35.450Z,530.00
2023-04-08T07:25:35.456Z,525.00
2023-04-08T07:26:35.472Z,526.00
2023-04-08T07:27:35.456Z,523.00
2023-04-08T07:28:35.524Z,523.00
2023-04-08T07:29:35.496Z,524.00
2023-04-08T07:30:35.522Z,521.00
2023-04-08T07:31:35.742Z,522.00
2023-04-08T07:32:35.580Z,520.00
2023-04-08T07:33:35.549Z,523.00
2023-04-08T07:34:35.539Z,520.00
2023-04-08T07:35:35.751Z,525.00
2023-04-08T07:36:35.554Z,521.00
2023-04-08T07:37:35.530Z,519.00
2023-04-08T07:38:35.556Z,518.00
2023-04-08T07:39:35.557Z,526.00
2023-04-08T07:40:35.594Z,525.00
2023-04-08T07:41:35.557Z,526.00
2023-04-08T07:42:35.579Z,522.00
2023-04-08T07:43:35.593Z,523.00
2023-04-08T07:44:35.559Z,520.00
2023-04-08T07:45:35.576Z,525.00
2023-04-08T07:46:35.681Z,518.00
2023-04-08T07:47:35.673Z,523.00
2023-04-08T07:48:35.645Z,521.00
2023-04-08T07:49:35.650Z,520.00
2023-04-08T07:50:35.654Z,520.00
2023-04-08T07:51:51.398Z,521.00
2023-04-08T07:52:35.603Z,522.00
2023-04-08T07:53:36.401Z,524.00
2023-04-08T07:54:36.476Z,525.00
2023-04-08T07:55:35.921Z,526.00
2023-04-08T07:56:35.581Z,528.00
2023-04-08T07:57:35.612Z,527.00
2023-04-08T07:58:35.550Z,525.00
2023-04-08T07:59:35.578Z,520.00
2023-04-08T08:00:35.597Z,520.00
2023-04-08T08:01:35.588Z,515.00
2023-04-08T08:02:35.742Z,522.00
2023-04-08T08:03:38.589Z,517.00
2023-04-08T08:04:35.696Z,517.00
2023-04-08T08:05:35.499Z,517.00
2023-04-08T08:06:35.590Z,518.00
2023-04-08T08:07:35.527Z,517.00
2023-04-08T08:08:35.493Z,523.00
2023-04-08T08:09:35.521Z,522.00
2023-04-08T08:10:35.465Z,518.00
2023-04-08T08:11:35.488Z,518.00
2023-04-08T08:12:35.445Z,516.00
2023-04-08T08:13:35.952Z,518.00
2023-04-08T08:14:35.446Z,518.00
2023-04-08T08:15:35.506Z,519.00
2023-04-08T08:16:35.592Z,521.00
2023-04-08T08:17:35.488Z,515.00
2023-04-08T08:18:35.437Z,521.00
2023-04-08T08:19:35.442Z,520.00
2023-04-08T08:20:35.401Z,518.00
2023-04-08T08:21:35.436Z,515.00
2023-04-08T08:22:39.676Z,526.00
2023-04-08T08:23:36.403Z,526.00
2023-04-08T08:24:35.382Z,527.00
2023-04-08T08:25:35.403Z,528.00
2023-04-08T08:26:35.377Z,530.00
2023-04-08T08:27:35.388Z,530.00
2023-04-08T08:28:35.358Z,530.00
2023-04-08T08:29:35.387Z,529.00
2023-04-08T08:30:35.464Z,526.00
2023-04-08T08:31:35.427Z,527.00
2023-04-08T08:32:35.339Z,520.00
2023-04-08T08:33:35.360Z,526.00
2023-04-08T08:34:35.313Z,525.00
2023-04-08T08:35:35.362Z,530.00
2023-04-08T08:36:35.426Z,524.00
2023-04-08T08:37:35.364Z,526.00
2023-04-08T08:38:35.289Z,526.00
2023-04-08T08:39:35.371Z,529.00
2023-04-08T08:40:35.273Z,528.00
2023-04-08T08:41:35.304Z,527.00
2023-04-08T08:42:35.278Z,529.00
2023-04-08T08:43:35.287Z,529.00
2023-04-08T08:44:35.253Z,527.00
2023-04-08T08:45:35.332Z,526.00
2023-04-08T08:46:35.287Z,525.00
2023-04-08T08:47:35.263Z,528.00
2023-04-08T08:48:35.255Z,526.00
2023-04-08T08:49:35.255Z,527.00
2023-04-08T08:50:35.320Z,530.00
2023-04-08T08:51:35.322Z,521.00
2023-04-08T08:52:35.902Z,525.00
2023-04-08T08:53:36.152Z,523.00
2023-04-08T08:54:35.170Z,524.00
2023-04-08T08:55:53.239Z,529.00
2023-04-08T08:56:36.186Z,529.00
2023-04-08T08:57:35.906Z,529.00
2023-04-08T08:58:35.292Z,530.00
2023-04-08T08:59:35.161Z,527.00
2023-04-08T09:00:35.139Z,527.00
2023-04-08T09:01:35.975Z,529.00
2023-04-08T09:02:36.087Z,526.00
2023-04-08T09:03:35.230Z,529.00
2023-04-08T09:04:35.360Z,533.00
2023-04-08T09:05:35.269Z,530.00
2023-04-08T09:06:35.462Z,531.00
2023-04-08T09:07:35.067Z,532.00
2023-04-08T09:08:35.082Z,529.00
2023-04-08T09:09:35.097Z,527.00
2023-04-08T09:10:35.074Z,531.00
2023-04-08T09:11:35.081Z,534.00
2023-04-08T09:12:35.915Z,529.00
2023-04-08T09:13:35.119Z,532.00
2023-04-08T09:14:35.192Z,533.00
2023-04-08T09:15:35.216Z,532.00
2023-04-08T09:16:35.317Z,532.00
2023-04-08T09:17:35.383Z,534.00
2023-04-08T09:18:35.445Z,536.00
2023-04-08T09:19:35.449Z,536.00
2023-04-08T09:20:35.524Z,527.00
2023-04-08T09:21:35.579Z,532.00
2023-04-08T09:22:35.607Z,533.00
2023-04-08T09:23:35.981Z,533.00
2023-04-08T09:24:35.748Z,535.00
2023-04-08T09:25:35.754Z,532.00
2023-04-08T09:26:35.892Z,533.00
2023-04-08T09:27:35.891Z,537.00
2023-04-08T09:28:37.050Z,533.00
2023-04-08T09:29:39.124Z,538.00
2023-04-08T09:30:36.063Z,538.00
2023-04-08T09:31:36.564Z,538.00
2023-04-08T09:32:36.028Z,534.00
2023-04-08T09:33:35.986Z,536.00
2023-04-08T09:34:35.973Z,537.00
2023-04-08T09:35:36.055Z,533.00
2023-04-08T09:36:36.024Z,538.00
2023-04-08T09:37:35.952Z,536.00
2023-04-08T09:38:36.012Z,534.00
2023-04-08T09:39:36.032Z,538.00
2023-04-08T09:40:35.942Z,536.00
2023-04-08T09:41:35.980Z,537.00
2023-04-08T09:42:35.937Z,532.00
2023-04-08T09:43:35.947Z,538.00
2023-04-08T09:44:35.914Z,532.00
2023-04-08T09:45:35.911Z,534.00
2023-04-08T09:46:35.947Z,534.00
2023-04-08T09:47:35.977Z,534.00
2023-04-08T09:48:35.883Z,529.00
2023-04-08T09:49:35.911Z,533.00
2023-04-08T09:50:35.878Z,533.00
2023-04-08T09:51:35.851Z,532.00
2023-04-08T09:52:35.911Z,536.00
2023-04-08T09:53:35.921Z,533.00
2023-04-08T09:54:36.003Z,537.00
2023-04-08T09:55:36.072Z,538.00
2023-04-08T09:56:36.129Z,537.00
2023-04-08T09:57:36.200Z,535.00
2023-04-08T09:58:36.443Z,530.00
2023-04-08T09:59:36.315Z,529.00
2023-04-08T10:00:36.372Z,526.00
2023-04-08T10:01:37.095Z,525.00
2023-04-08T10:02:36.652Z,526.00
2023-04-08T10:03:36.709Z,528.00
2023-04-08T10:04:36.682Z,522.00
2023-04-08T10:05:36.719Z,526.00
2023-04-08T10:06:36.779Z,521.00
2023-04-08T10:07:36.842Z,527.00
2023-04-08T10:08:36.864Z,525.00
2023-04-08T10:09:36.947Z,518.00
2023-04-08T10:10:37.009Z,524.00
2023-04-08T10:11:37.084Z,524.00
2023-04-08T10:12:37.100Z,520.00
2023-04-08T10:13:37.218Z,531.00
2023-04-08T10:14:37.248Z,526.00
2023-04-08T10:15:37.268Z,523.00
2023-04-08T10:16:37.343Z,519.00
2023-04-08T10:17:37.421Z,520.00
2023-04-08T10:18:37.451Z,523.00
2023-04-08T10:19:37.495Z,527.00
2023-04-08T10:20:37.555Z,524.00
2023-04-08T10:21:37.608Z,520.00
2023-04-08T10:22:37.598Z,524.00
2023-04-08T10:23:37.707Z,522.00
2023-04-08T10:24:37.694Z,520.00
2023-04-08T10:25:37.734Z,517.00
2023-04-08T10:26:37.785Z,522.00
2023-04-08T10:27:37.810Z,516.00
2023-04-08T10:28:37.925Z,519.00
2023-04-08T10:29:37.812Z,516.00
2023-04-08T10:30:37.881Z,523.00
2023-04-08T10:31:37.954Z,516.00
2023-04-08T10:32:37.895Z,514.00
2023-04-08T10:33:47.773Z,521.00
2023-04-08T10:34:38.894Z,522.00
2023-04-08T10:35:37.939Z,522.00
2023-04-08T10:36:37.855Z,522.00
2023-04-08T10:37:37.876Z,516.00
2023-04-08T10:38:37.858Z,520.00
2023-04-08T10:39:38.794Z,515.00
2023-04-08T10:40:37.826Z,519.00
2023-04-08T10:41:37.795Z,512.00
2023-04-08T10:42:37.812Z,515.00
2023-04-08T10:43:37.886Z,517.00
2023-04-08T10:44:37.783Z,522.00
2023-04-08T10:45:37.925Z,518.00
2023-04-08T10:46:37.921Z,512.00
2023-04-08T10:47:37.911Z,515.00
2023-04-08T10:48:37.899Z,517.00
2023-04-08T10:49:37.920Z,517.00
2023-04-08T10:50:37.917Z,514.00
2023-04-08T10:51:37.982Z,511.00
2023-04-08T10:52:37.922Z,516.00
2023-04-08T10:53:37.941Z,511.00
2023-04-08T10:54:38.014Z,513.00
2023-04-08T10:55:38.028Z,515.00
2023-04-08T10:56:37.994Z,517.00
2023-04-08T10:57:38.172Z,510.00
2023-04-08T10:58:38.022Z,517.00
2023-04-08T10:59:38.035Z,513.00
2023-04-08T11:00:38.065Z,511.00
2023-04-08T11:01:38.185Z,512.00
2023-04-08T11:02:38.190Z,516.00
2023-04-08T11:03:38.206Z,509.00
2023-04-08T11:04:38.141Z,510.00
2023-04-08T11:05:38.077Z,513.00
2023-04-08T11:06:38.176Z,509.00
2023-04-08T11:07:38.068Z,514.00
2023-04-08T11:08:38.046Z,514.00
2023-04-08T11:09:38.033Z,508.00
2023-04-08T11:10:38.049Z,504.00
2023-04-08T11:11:39.004Z,506.00
2023-04-08T11:12:38.058Z,506.00
2023-04-08T11:13:38.081Z,513.00
2023-04-08T11:14:38.058Z,506.00
2023-04-08T11:15:38.141Z,507.00
2023-04-08T11:16:38.096Z,514.00
2023-04-08T11:17:38.191Z,513.00
2023-04-08T11:18:38.092Z,508.00
2023-04-08T11:19:38.091Z,510.00
2023-04-08T11:20:38.091Z,508.00
2023-04-08T11:21:38.114Z,507.00
2023-04-08T11:22:38.128Z,506.00
2023-04-08T11:23:38.134Z,508.00
2023-04-08T11:24:38.100Z,506.00
2023-04-08T11:25:38.182Z,505.00
2023-04-08T11:26:38.238Z,507.00
2023-04-08T11:27:40.973Z,506.00
2023-04-08T11:28:38.073Z,506.00
2023-04-08T11:29:38.120Z,511.00
2023-04-08T11:30:38.149Z,504.00
2023-04-08T11:31:38.150Z,503.00
2023-04-08T11:32:38.074Z,509.00
2023-04-08T11:33:38.039Z,506.00
2023-04-08T11:34:38.010Z,503.00
2023-04-08T11:35:38.089Z,512.00
2023-04-08T11:36:38.012Z,511.00
2023-04-08T11:37:37.997Z,508.00
2023-04-08T11:38:38.020Z,507.00
2023-04-08T11:39:37.974Z,507.00
2023-04-08T11:40:37.992Z,509.00
2023-04-08T11:41:37.971Z,511.00
2023-04-08T11:42:39.027Z,510.00
2023-04-08T11:43:37.966Z,509.00
2023-04-08T11:44:37.927Z,505.00
2023-04-08T11:45:37.932Z,509.00
2023-04-08T11:46:38.076Z,509.00
2023-04-08T11:47:38.008Z,510.00
2023-04-08T11:48:37.920Z,513.00
2023-04-08T11:49:37.903Z,509.00
2023-04-08T11:50:38.489Z,508.00
2023-04-08T11:51:38.515Z,513.00
2023-04-08T11:52:37.904Z,510.00
2023-04-08T11:53:37.917Z,513.00
2023-04-08T11:54:37.854Z,507.00
2023-04-08T11:55:37.842Z,508.00
2023-04-08T11:56:37.876Z,517.00
2023-04-08T11:57:37.945Z,510.00
2023-04-08T11:58:37.839Z,511.00
2023-04-08T11:59:37.818Z,511.00
2023-04-08T12:00:37.816Z,511.00
2023-04-08T12:01:37.892Z,511.00
2023-04-08T12:02:37.877Z,512.00
2023-04-08T12:03:37.947Z,517.00
2023-04-08T12:04:37.864Z,516.00
2023-04-08T12:05:37.837Z,514.00
2023-04-08T12:06:37.786Z,512.00
2023-04-08T12:07:37.814Z,512.00
2023-04-08T12:08:37.759Z,512.00
2023-04-08T12:09:37.762Z,514.00
2023-04-08T12:10:37.843Z,513.00
2023-04-08T12:11:37.942Z,512.00
2023-04-08T12:12:37.996Z,518.00
2023-04-08T12:13:38.038Z,509.00
2023-04-08T12:14:38.098Z,504.00
2023-04-08T12:15:38.150Z,510.00
2023-04-08T12:16:38.333Z,507.00
2023-04-08T12:17:38.683Z,511.00
2023-04-08T12:18:38.384Z,508.00
2023-04-08T12:19:38.724Z,512.00
2023-04-08T12:20:38.530Z,512.00
2023-04-08T12:21:38.535Z,506.00
2023-04-08T12:22:38.635Z,507.00
2023-04-08T12:23:38.669Z,508.00
2023-04-08T12:24:38.700Z,512.00
2023-04-08T12:25:38.743Z,503.00
2023-04-08T12:26:38.854Z,510.00
2023-04-08T12:27:38.882Z,509.00
2023-04-08T12:28:38.968Z,512.00